AFL1122 UUEE-URSS
Flight info
| Callsign | AFL1122 |
|---|---|
| Flight time | N/A |
| Altitude | 35000 |
| Route | RILPO DCT DIPGO DCT BUDOM/K0835F320 DCT NIMTA/K0832F330 DCT MOLED N50 LIDUS/K0833F340 G242 ZG/K0835F330 DCT ITAKA/K0835F320 DCT OBBUD DCT AMKOL DCT GOTIK DCT MEMZA DCT VENFO DCT BINOL |
| Aircraft | B738/M-SDE2E3FGHIRWXY/LB1 |
Departure
| Time | N/A |
|---|---|
| Airport | Sheremetyevo International Airport (UUEE) |
Arrival
| Time | 2026-05-07 20:55 |
|---|---|
| Airport | Sochi International Airport (URSS) |
| Time | Latitude | Longitude | Altitude | Speed | Heading |
|---|---|---|---|---|---|
| 2026-05-07 19:02 | 46.38252 | 47.78246 | 35952 ft | 452 kts | 122° |
| 2026-05-07 19:02 | 46.34837 | 47.85907 | 35914 ft | 453 kts | 123° |
| 2026-05-07 19:03 | 46.31433 | 47.93522 | 35909 ft | 454 kts | 123° |
| 2026-05-07 19:03 | 46.28249 | 48.01460 | 35907 ft | 455 kts | 112° |
| 2026-05-07 19:04 | 46.26581 | 48.10197 | 35922 ft | 455 kts | 102° |
| 2026-05-07 19:04 | 46.25738 | 48.14599 | 35882 ft | 455 kts | 116° |
| 2026-05-07 19:04 | 46.23951 | 48.18326 | 35933 ft | 452 kts | 137° |
| 2026-05-07 19:04 | 46.21417 | 48.20966 | 35931 ft | 450 kts | 154° |
| 2026-05-07 19:05 | 46.18490 | 48.22526 | 35924 ft | 450 kts | 168° |
| 2026-05-07 19:05 | 46.15387 | 48.23071 | 35919 ft | 450 kts | 183° |
| 2026-05-07 19:05 | 46.12291 | 48.22466 | 35952 ft | 449 kts | 191° |
| 2026-05-07 19:06 | 46.07154 | 48.20890 | 35938 ft | 452 kts | 193° |
| 2026-05-07 19:06 | 45.97899 | 48.17934 | 35949 ft | 455 kts | 193° |
| 2026-05-07 19:07 | 45.91733 | 48.16049 | 35955 ft | 456 kts | 192° |
| 2026-05-07 19:07 | 45.85545 | 48.14196 | 35949 ft | 452 kts | 192° |
| 2026-05-07 19:08 | 45.79414 | 48.12371 | 35960 ft | 448 kts | 192° |
| 2026-05-07 19:08 | 45.73332 | 48.10564 | 35966 ft | 445 kts | 192° |
| 2026-05-07 19:09 | 45.67267 | 48.08763 | 35981 ft | 448 kts | 192° |
| 2026-05-07 19:09 | 45.61122 | 48.06941 | 35991 ft | 453 kts | 192° |
| 2026-05-07 19:10 | 45.54928 | 48.05110 | 35980 ft | 457 kts | 192° |
| 2026-05-07 19:10 | 45.48665 | 48.03263 | 35987 ft | 458 kts | 192° |
| 2026-05-07 19:11 | 45.42473 | 48.01441 | 35975 ft | 450 kts | 192° |
| 2026-05-07 19:11 | 45.36356 | 47.99645 | 35989 ft | 447 kts | 192° |
| 2026-05-07 19:12 | 45.30257 | 47.97855 | 35991 ft | 449 kts | 192° |
| 2026-05-07 19:12 | 45.24130 | 47.96065 | 36004 ft | 451 kts | 192° |
| 2026-05-07 19:13 | 45.17978 | 47.94272 | 35991 ft | 451 kts | 192° |
| 2026-05-07 19:13 | 45.11850 | 47.92489 | 36007 ft | 447 kts | 192° |
| 2026-05-07 19:14 | 45.05775 | 47.90725 | 36005 ft | 444 kts | 192° |
| 2026-05-07 19:14 | 44.99732 | 47.88973 | 36006 ft | 444 kts | 192° |
| 2026-05-07 19:15 | 44.93655 | 47.87216 | 36022 ft | 447 kts | 193° |
| 2026-05-07 19:15 | 44.87572 | 47.85459 | 36032 ft | 445 kts | 192° |
| 2026-05-07 19:16 | 44.81523 | 47.83722 | 36026 ft | 441 kts | 192° |
| 2026-05-07 19:16 | 44.75515 | 47.81994 | 36029 ft | 441 kts | 193° |
| 2026-05-07 19:17 | 44.69490 | 47.80264 | 36025 ft | 444 kts | 192° |
| 2026-05-07 19:17 | 44.63415 | 47.78527 | 36046 ft | 446 kts | 192° |
| 2026-05-07 19:18 | 44.57342 | 47.76793 | 36043 ft | 444 kts | 193° |
| 2026-05-07 19:18 | 44.51351 | 47.75087 | 36041 ft | 439 kts | 193° |
| 2026-05-07 19:19 | 44.45434 | 47.73407 | 36046 ft | 434 kts | 193° |
| 2026-05-07 19:19 | 44.39475 | 47.71715 | 36042 ft | 440 kts | 192° |
| 2026-05-07 19:20 | 44.33433 | 47.70003 | 36053 ft | 445 kts | 193° |
| 2026-05-07 19:20 | 44.27345 | 47.68283 | 36058 ft | 447 kts | 193° |
| 2026-05-07 19:21 | 44.21230 | 47.66559 | 36055 ft | 449 kts | 192° |
| 2026-05-07 19:21 | 44.15152 | 47.64851 | 36036 ft | 438 kts | 193° |
| 2026-05-07 19:22 | 44.12207 | 47.64026 | 36040 ft | 427 kts | 193° |
| 2026-05-07 19:22 | 44.09308 | 47.63213 | 36049 ft | 424 kts | 193° |
| 2026-05-07 19:22 | 44.03534 | 47.61593 | 36069 ft | 423 kts | 193° |
| 2026-05-07 19:23 | 43.97762 | 47.59978 | 36073 ft | 422 kts | 193° |
| 2026-05-07 19:23 | 43.92000 | 47.58369 | 36072 ft | 422 kts | 193° |
| 2026-05-07 19:24 | 43.86233 | 47.56764 | 36082 ft | 425 kts | 193° |
| 2026-05-07 19:24 | 43.80391 | 47.55138 | 36085 ft | 431 kts | 193° |
| 2026-05-07 19:25 | 43.74463 | 47.53493 | 36083 ft | 438 kts | 193° |
| 2026-05-07 19:25 | 43.68466 | 47.51754 | 36080 ft | 442 kts | 200° |
| 2026-05-07 19:26 | 43.65772 | 47.49909 | 36093 ft | 439 kts | 217° |
| 2026-05-07 19:26 | 43.63540 | 47.47041 | 36069 ft | 440 kts | 232° |
| 2026-05-07 19:26 | 43.61881 | 47.43494 | 36092 ft | 441 kts | 244° |
| 2026-05-07 19:26 | 43.60879 | 47.39491 | 36082 ft | 444 kts | 259° |
| 2026-05-07 19:27 | 43.60113 | 47.31015 | 36087 ft | 446 kts | 262° |
| 2026-05-07 19:27 | 43.59492 | 47.22493 | 36080 ft | 446 kts | 262° |
| 2026-05-07 19:28 | 43.58828 | 47.14021 | 36077 ft | 443 kts | 262° |
| 2026-05-07 19:28 | 43.58123 | 47.05599 | 36082 ft | 440 kts | 261° |
| 2026-05-07 19:29 | 43.57403 | 46.97235 | 36083 ft | 438 kts | 261° |
| 2026-05-07 19:29 | 43.56681 | 46.88925 | 36096 ft | 435 kts | 261° |
| 2026-05-07 19:30 | 43.55957 | 46.80648 | 36103 ft | 433 kts | 261° |
| 2026-05-07 19:30 | 43.55227 | 46.72373 | 36112 ft | 438 kts | 262° |
| 2026-05-07 19:31 | 43.54481 | 46.63984 | 36110 ft | 444 kts | 262° |
| 2026-05-07 19:31 | 43.53722 | 46.55506 | 36113 ft | 447 kts | 261° |
| 2026-05-07 19:32 | 43.52952 | 46.46985 | 36110 ft | 449 kts | 261° |
| 2026-05-07 19:32 | 43.52173 | 46.38433 | 36111 ft | 450 kts | 261° |
| 2026-05-07 19:33 | 43.51388 | 46.29890 | 36108 ft | 448 kts | 261° |
| 2026-05-07 19:33 | 43.50601 | 46.21396 | 36111 ft | 446 kts | 261° |
| 2026-05-07 19:34 | 43.49813 | 46.12948 | 36108 ft | 444 kts | 261° |
| 2026-05-07 19:34 | 43.49087 | 46.04586 | 36117 ft | 442 kts | 266° |
| 2026-05-07 19:35 | 43.49528 | 45.96147 | 36131 ft | 443 kts | 275° |
| 2026-05-07 19:35 | 43.50286 | 45.87723 | 36136 ft | 443 kts | 276° |
| 2026-05-07 19:36 | 43.51018 | 45.79289 | 36133 ft | 444 kts | 275° |
| 2026-05-07 19:36 | 43.51721 | 45.70810 | 36133 ft | 446 kts | 275° |
| 2026-05-07 19:37 | 43.52410 | 45.62290 | 36130 ft | 449 kts | 275° |
| 2026-05-07 19:37 | 43.53095 | 45.53717 | 36135 ft | 451 kts | 275° |
| 2026-05-07 19:38 | 43.53778 | 45.45105 | 36139 ft | 453 kts | 275° |
| 2026-05-07 19:38 | 43.54458 | 45.36452 | 36134 ft | 455 kts | 275° |
| 2026-05-07 19:39 | 43.55135 | 45.27759 | 36133 ft | 456 kts | 275° |
| 2026-05-07 19:39 | 43.55805 | 45.19057 | 36131 ft | 457 kts | 275° |
| 2026-05-07 19:40 | 43.56470 | 45.10344 | 36146 ft | 457 kts | 275° |
| 2026-05-07 19:40 | 43.57128 | 45.01629 | 36138 ft | 457 kts | 275° |
| 2026-05-07 19:41 | 43.57778 | 44.92924 | 36150 ft | 456 kts | 275° |
| 2026-05-07 19:41 | 43.58422 | 44.84221 | 36149 ft | 455 kts | 275° |
| 2026-05-07 19:42 | 43.59057 | 44.75538 | 36146 ft | 455 kts | 275° |
| 2026-05-07 19:42 | 43.59685 | 44.66856 | 36147 ft | 455 kts | 275° |
| 2026-05-07 19:43 | 43.60308 | 44.58171 | 36147 ft | 455 kts | 275° |
| 2026-05-07 19:43 | 43.60923 | 44.49490 | 36141 ft | 455 kts | 275° |
| 2026-05-07 19:44 | 43.61532 | 44.40793 | 36137 ft | 455 kts | 275° |
| 2026-05-07 19:44 | 43.62136 | 44.32084 | 36135 ft | 456 kts | 275° |
| 2026-05-07 19:45 | 43.62734 | 44.23357 | 36128 ft | 457 kts | 275° |
| 2026-05-07 19:45 | 43.63329 | 44.14602 | 36132 ft | 459 kts | 275° |
| 2026-05-07 19:46 | 43.63760 | 44.05795 | 36135 ft | 461 kts | 272° |
| 2026-05-07 19:46 | 43.63968 | 43.96942 | 36128 ft | 462 kts | 271° |
| 2026-05-07 19:47 | 43.64169 | 43.88063 | 36118 ft | 463 kts | 272° |
| 2026-05-07 19:47 | 43.64398 | 43.79167 | 36116 ft | 464 kts | 272° |
| 2026-05-07 19:48 | 43.64636 | 43.70269 | 36115 ft | 464 kts | 272° |
| 2026-05-07 19:48 | 43.64871 | 43.61376 | 36111 ft | 463 kts | 272° |
| 2026-05-07 19:49 | 43.65060 | 43.53987 | 36123 ft | 462 kts | 272° |
| 2026-05-07 19:49 | 43.65281 | 43.45123 | 36128 ft | 462 kts | 272° |
| 2026-05-07 19:50 | 43.65493 | 43.36268 | 36135 ft | 461 kts | 272° |
| 2026-05-07 19:50 | 43.65698 | 43.27424 | 36149 ft | 460 kts | 272° |
| 2026-05-07 19:51 | 43.65897 | 43.18589 | 36164 ft | 460 kts | 272° |
| 2026-05-07 19:51 | 43.66089 | 43.09746 | 36157 ft | 461 kts | 272° |
| 2026-05-07 19:52 | 43.66274 | 43.00911 | 36175 ft | 461 kts | 272° |
| 2026-05-07 19:52 | 43.66452 | 42.92056 | 36184 ft | 461 kts | 272° |
| 2026-05-07 19:53 | 43.66623 | 42.83199 | 36192 ft | 462 kts | 272° |
| 2026-05-07 19:53 | 43.66788 | 42.74329 | 36197 ft | 462 kts | 272° |
| 2026-05-07 19:54 | 43.66947 | 42.65445 | 36193 ft | 463 kts | 272° |
| 2026-05-07 19:54 | 43.67098 | 42.56548 | 36205 ft | 464 kts | 272° |
| 2026-05-07 19:55 | 43.67243 | 42.47635 | 36205 ft | 464 kts | 272° |
| 2026-05-07 19:55 | 43.67382 | 42.38723 | 36208 ft | 464 kts | 272° |
| 2026-05-07 19:56 | 43.67513 | 42.29803 | 36210 ft | 464 kts | 272° |
| 2026-05-07 19:56 | 43.67637 | 42.20886 | 36221 ft | 465 kts | 272° |
| 2026-05-07 19:57 | 43.67754 | 42.11955 | 36216 ft | 465 kts | 272° |
| 2026-05-07 19:57 | 43.67865 | 42.03023 | 36222 ft | 465 kts | 272° |
| 2026-05-07 19:58 | 43.67966 | 41.94312 | 36219 ft | 465 kts | 272° |
| 2026-05-07 19:58 | 43.68062 | 41.85387 | 36231 ft | 465 kts | 272° |
| 2026-05-07 19:59 | 43.68153 | 41.76457 | 36227 ft | 465 kts | 272° |
| 2026-05-07 19:59 | 43.68236 | 41.67514 | 36233 ft | 465 kts | 272° |
| 2026-05-07 20:00 | 43.68312 | 41.58613 | 35816 ft | 472 kts | 272° |
| 2026-05-07 20:00 | 43.68349 | 41.54005 | 35254 ft | 472 kts | 272° |
| 2026-05-07 20:00 | 43.68382 | 41.49471 | 34663 ft | 473 kts | 272° |
| 2026-05-07 20:01 | 43.68414 | 41.44999 | 34207 ft | 470 kts | 273° |
| 2026-05-07 20:01 | 43.68443 | 41.40495 | 33666 ft | 468 kts | 272° |
| 2026-05-07 20:01 | 43.68471 | 41.36020 | 33204 ft | 463 kts | 273° |
| 2026-05-07 20:01 | 43.68497 | 41.31585 | 32761 ft | 460 kts | 272° |
| 2026-05-07 20:02 | 43.68522 | 41.27188 | 32315 ft | 456 kts | 272° |
| 2026-05-07 20:02 | 43.68544 | 41.22825 | 31879 ft | 453 kts | 272° |
| 2026-05-07 20:02 | 43.68566 | 41.18486 | 31452 ft | 449 kts | 272° |
| 2026-05-07 20:02 | 43.68585 | 41.14182 | 31037 ft | 446 kts | 272° |
| 2026-05-07 20:03 | 43.68602 | 41.09910 | 30630 ft | 444 kts | 272° |
| 2026-05-07 20:03 | 43.68618 | 41.05654 | 30151 ft | 442 kts | 272° |
| 2026-05-07 20:03 | 43.68633 | 41.01429 | 29666 ft | 439 kts | 272° |
| 2026-05-07 20:03 | 43.68646 | 40.97228 | 29221 ft | 435 kts | 272° |
| 2026-05-07 20:04 | 43.68657 | 40.93066 | 28797 ft | 431 kts | 272° |
| 2026-05-07 20:04 | 43.68667 | 40.88939 | 28360 ft | 428 kts | 272° |
| 2026-05-07 20:04 | 43.68681 | 40.84842 | 27812 ft | 426 kts | 272° |
| 2026-05-07 20:04 | 43.68700 | 40.80772 | 27411 ft | 422 kts | 272° |
| 2026-05-07 20:05 | 43.68719 | 40.76736 | 26984 ft | 419 kts | 272° |
| 2026-05-07 20:05 | 43.68738 | 40.72720 | 26570 ft | 416 kts | 272° |
| 2026-05-07 20:05 | 43.68755 | 40.68741 | 26145 ft | 412 kts | 272° |
| 2026-05-07 20:05 | 43.68769 | 40.64801 | 25781 ft | 408 kts | 272° |
| 2026-05-07 20:06 | 43.68781 | 40.60890 | 25374 ft | 405 kts | 272° |
| 2026-05-07 20:06 | 43.68792 | 40.57013 | 24975 ft | 402 kts | 272° |
| 2026-05-07 20:06 | 43.68803 | 40.53161 | 24594 ft | 400 kts | 272° |
| 2026-05-07 20:06 | 43.68811 | 40.49337 | 24195 ft | 397 kts | 272° |
| 2026-05-07 20:07 | 43.68819 | 40.45528 | 23814 ft | 394 kts | 272° |
| 2026-05-07 20:07 | 43.68824 | 40.41809 | 23373 ft | 392 kts | 272° |
| 2026-05-07 20:07 | 43.68829 | 40.38062 | 22940 ft | 389 kts | 272° |
| 2026-05-07 20:07 | 43.68832 | 40.34348 | 22566 ft | 384 kts | 271° |
| 2026-05-07 20:08 | 43.68834 | 40.30671 | 22167 ft | 380 kts | 271° |
| 2026-05-07 20:08 | 43.68835 | 40.27050 | 21808 ft | 376 kts | 271° |
| 2026-05-07 20:08 | 43.68836 | 40.25830 | 21671 ft | 375 kts | 271° |
| 2026-05-07 20:09 | 43.68102 | 40.12700 | 20257 ft | 368 kts | 242° |
| 2026-05-07 20:09 | 43.66551 | 40.09913 | 19835 ft | 368 kts | 222° |
| 2026-05-07 20:10 | 43.62090 | 40.06518 | 18929 ft | 369 kts | 203° |
| 2026-05-07 20:10 | 43.59735 | 40.05101 | 18456 ft | 370 kts | 203° |
| 2026-05-07 20:10 | 43.57379 | 40.03665 | 17979 ft | 369 kts | 204° |
| 2026-05-07 20:10 | 43.55240 | 40.02339 | 17647 ft | 365 kts | 204° |
| 2026-05-07 20:11 | 43.52936 | 40.00897 | 17290 ft | 361 kts | 204° |
| 2026-05-07 20:11 | 43.52089 | 40.00367 | 17162 ft | 360 kts | 204° |
| 2026-05-07 20:11 | 43.51042 | 39.99710 | 17000 ft | 358 kts | 204° |
| 2026-05-07 20:12 | 43.47154 | 39.97278 | 16416 ft | 352 kts | 204° |
| 2026-05-07 20:12 | 43.44185 | 39.95537 | 15905 ft | 349 kts | 199° |
| 2026-05-07 20:12 | 43.41886 | 39.94446 | 15474 ft | 349 kts | 197° |
| 2026-05-07 20:12 | 43.39574 | 39.93421 | 15026 ft | 349 kts | 197° |
| 2026-05-07 20:13 | 43.37256 | 39.92405 | 14596 ft | 350 kts | 197° |
| 2026-05-07 20:13 | 43.34940 | 39.91383 | 14157 ft | 350 kts | 197° |
| 2026-05-07 20:13 | 43.33404 | 39.90698 | 13779 ft | 351 kts | 197° |
| 2026-05-07 20:13 | 43.31063 | 39.89648 | 13167 ft | 355 kts | 198° |
| 2026-05-07 20:14 | 43.28722 | 39.88592 | 12686 ft | 354 kts | 198° |
| 2026-05-07 20:14 | 43.26409 | 39.87545 | 12205 ft | 345 kts | 198° |
| 2026-05-07 20:14 | 43.24161 | 39.86526 | 11763 ft | 335 kts | 198° |
| 2026-05-07 20:14 | 43.21976 | 39.85535 | 11340 ft | 326 kts | 198° |
| 2026-05-07 20:15 | 43.19823 | 39.84560 | 10930 ft | 318 kts | 198° |
| 2026-05-07 20:15 | 43.17748 | 39.83620 | 10533 ft | 310 kts | 198° |
| 2026-05-07 20:15 | 43.15753 | 39.82718 | 10154 ft | 303 kts | 198° |
| 2026-05-07 20:15 | 43.13783 | 39.81827 | 9901 ft | 290 kts | 198° |
| 2026-05-07 20:16 | 43.11910 | 39.80980 | 9475 ft | 286 kts | 198° |
| 2026-05-07 20:16 | 43.10031 | 39.80132 | 9068 ft | 281 kts | 198° |
| 2026-05-07 20:16 | 43.08183 | 39.79298 | 8657 ft | 277 kts | 198° |
| 2026-05-07 20:16 | 43.06366 | 39.78479 | 8294 ft | 272 kts | 198° |
| 2026-05-07 20:17 | 43.04583 | 39.77675 | 7950 ft | 267 kts | 198° |
| 2026-05-07 20:17 | 43.02809 | 39.77071 | 7671 ft | 261 kts | 180° |
| 2026-05-07 20:17 | 43.01076 | 39.77620 | 7421 ft | 256 kts | 150° |
| 2026-05-07 20:17 | 42.99768 | 39.79198 | 7228 ft | 250 kts | 123° |
| 2026-05-07 20:18 | 42.99123 | 39.81360 | 7129 ft | 246 kts | 97° |
| 2026-05-07 20:18 | 42.99228 | 39.83669 | 7070 ft | 246 kts | 72° |
| 2026-05-07 20:18 | 43.00070 | 39.85702 | 7037 ft | 250 kts | 47° |
| 2026-05-07 20:18 | 43.01476 | 39.87111 | 7000 ft | 253 kts | 24° |
| 2026-05-07 20:19 | 43.03124 | 39.87932 | 6997 ft | 252 kts | 18° |
| 2026-05-07 20:19 | 43.04773 | 39.88637 | 6990 ft | 252 kts | 18° |
| 2026-05-07 20:19 | 43.06444 | 39.89353 | 6988 ft | 251 kts | 18° |
| 2026-05-07 20:19 | 43.08110 | 39.90079 | 6988 ft | 251 kts | 18° |
| 2026-05-07 20:20 | 43.09811 | 39.90557 | 6979 ft | 251 kts | 357° |
| 2026-05-07 20:20 | 43.11465 | 39.89909 | 7003 ft | 251 kts | 329° |
| 2026-05-07 20:20 | 43.12769 | 39.88298 | 7000 ft | 257 kts | 304° |
| 2026-05-07 20:20 | 43.13434 | 39.86046 | 6992 ft | 257 kts | 277° |
| 2026-05-07 20:21 | 43.13263 | 39.83637 | 6990 ft | 256 kts | 248° |
| 2026-05-07 20:21 | 43.12292 | 39.81638 | 6994 ft | 254 kts | 221° |
| 2026-05-07 20:21 | 43.10807 | 39.80376 | 7013 ft | 253 kts | 201° |
| 2026-05-07 20:21 | 43.09141 | 39.79595 | 6999 ft | 254 kts | 197° |
| 2026-05-07 20:22 | 43.07448 | 39.78879 | 6999 ft | 255 kts | 197° |
| 2026-05-07 20:22 | 43.05769 | 39.78162 | 7000 ft | 257 kts | 197° |
| 2026-05-07 20:22 | 43.04064 | 39.77423 | 6999 ft | 258 kts | 197° |
| 2026-05-07 20:22 | 43.02305 | 39.77134 | 6986 ft | 256 kts | 169° |
| 2026-05-07 20:23 | 43.00703 | 39.78094 | 7001 ft | 253 kts | 139° |
| 2026-05-07 20:23 | 42.99656 | 39.79987 | 7000 ft | 251 kts | 110° |
| 2026-05-07 20:23 | 42.99398 | 39.82312 | 7002 ft | 251 kts | 83° |
| 2026-05-07 20:23 | 42.99987 | 39.84531 | 6995 ft | 251 kts | 54° |
| 2026-05-07 20:24 | 43.01274 | 39.86108 | 7001 ft | 251 kts | 28° |
| 2026-05-07 20:24 | 43.02896 | 39.86997 | 7017 ft | 252 kts | 18° |
| 2026-05-07 20:24 | 43.04578 | 39.87717 | 6996 ft | 254 kts | 18° |
| 2026-05-07 20:24 | 43.06269 | 39.88436 | 6996 ft | 255 kts | 18° |
| 2026-05-07 20:25 | 43.07959 | 39.89169 | 6996 ft | 255 kts | 18° |
| 2026-05-07 20:25 | 43.09691 | 39.89672 | 6985 ft | 256 kts | 357° |
| 2026-05-07 20:25 | 43.11366 | 39.88975 | 7001 ft | 255 kts | 327° |
| 2026-05-07 20:25 | 43.12577 | 39.87236 | 6998 ft | 255 kts | 298° |
| 2026-05-07 20:26 | 43.13029 | 39.84911 | 6999 ft | 255 kts | 269° |
| 2026-05-07 20:26 | 43.12603 | 39.82584 | 6998 ft | 255 kts | 239° |
| 2026-05-07 20:26 | 43.11403 | 39.80846 | 7007 ft | 254 kts | 211° |
| 2026-05-07 20:26 | 43.09790 | 39.79864 | 7008 ft | 255 kts | 198° |
| 2026-05-07 20:27 | 43.08096 | 39.79135 | 7003 ft | 257 kts | 196° |
| 2026-05-07 20:27 | 43.06384 | 39.78415 | 6997 ft | 258 kts | 197° |
| 2026-05-07 20:27 | 43.04668 | 39.77678 | 6995 ft | 259 kts | 197° |
| 2026-05-07 20:27 | 43.02923 | 39.77090 | 6981 ft | 258 kts | 180° |
| 2026-05-07 20:28 | 43.01209 | 39.77629 | 7018 ft | 254 kts | 149° |
| 2026-05-07 20:28 | 42.99932 | 39.79251 | 6998 ft | 252 kts | 120° |
| 2026-05-07 20:28 | 42.99386 | 39.81490 | 7010 ft | 250 kts | 92° |
| 2026-05-07 20:28 | 42.99684 | 39.83811 | 6997 ft | 250 kts | 64° |
| 2026-05-07 20:29 | 43.00757 | 39.85651 | 7003 ft | 250 kts | 37° |
| 2026-05-07 20:29 | 43.02304 | 39.86733 | 7008 ft | 251 kts | 20° |
| 2026-05-07 20:29 | 43.03972 | 39.87475 | 6998 ft | 253 kts | 18° |
| 2026-05-07 20:29 | 43.05661 | 39.88189 | 6998 ft | 254 kts | 18° |
| 2026-05-07 20:30 | 43.07347 | 39.88915 | 6999 ft | 255 kts | 18° |
| 2026-05-07 20:30 | 43.09046 | 39.89604 | 6992 ft | 255 kts | 9° |
| 2026-05-07 20:30 | 43.10790 | 39.89380 | 7002 ft | 255 kts | 338° |
| 2026-05-07 20:30 | 43.12213 | 39.87975 | 7000 ft | 255 kts | 308° |
| 2026-05-07 20:31 | 43.12967 | 39.85806 | 6999 ft | 255 kts | 279° |
| 2026-05-07 20:31 | 43.12866 | 39.83410 | 6999 ft | 255 kts | 250° |
| 2026-05-07 20:31 | 43.11920 | 39.81392 | 6993 ft | 254 kts | 220° |
| 2026-05-07 20:31 | 43.10428 | 39.80182 | 7004 ft | 254 kts | 200° |
| 2026-05-07 20:32 | 43.08724 | 39.79401 | 7010 ft | 256 kts | 197° |
| 2026-05-07 20:32 | 43.07015 | 39.78683 | 6998 ft | 258 kts | 197° |
| 2026-05-07 20:32 | 43.05301 | 39.77953 | 6995 ft | 259 kts | 197° |
| 2026-05-07 20:32 | 43.03577 | 39.77226 | 6992 ft | 259 kts | 192° |
| 2026-05-07 20:33 | 43.01831 | 39.77262 | 6996 ft | 255 kts | 160° |
| 2026-05-07 20:33 | 43.00349 | 39.78521 | 6999 ft | 253 kts | 131° |
| 2026-05-07 20:33 | 42.99504 | 39.80590 | 7005 ft | 251 kts | 103° |
| 2026-05-07 20:33 | 42.99478 | 39.82945 | 6998 ft | 250 kts | 75° |
| 2026-05-07 20:34 | 43.00278 | 39.85025 | 6997 ft | 250 kts | 46° |
| 2026-05-07 20:34 | 43.01693 | 39.86388 | 7004 ft | 251 kts | 23° |
| 2026-05-07 20:34 | 43.03338 | 39.87188 | 7002 ft | 252 kts | 18° |
| 2026-05-07 20:34 | 43.05020 | 39.87902 | 6998 ft | 254 kts | 18° |
| 2026-05-07 20:35 | 43.06708 | 39.88623 | 6999 ft | 254 kts | 18° |
| 2026-05-07 20:35 | 43.08395 | 39.89357 | 6998 ft | 255 kts | 17° |
| 2026-05-07 20:35 | 43.10143 | 39.89610 | 6988 ft | 255 kts | 349° |
| 2026-05-07 20:35 | 43.11735 | 39.88608 | 7000 ft | 255 kts | 319° |
| 2026-05-07 20:36 | 43.12775 | 39.86671 | 6998 ft | 255 kts | 290° |
| 2026-05-07 20:36 | 43.13005 | 39.84289 | 6999 ft | 255 kts | 261° |
| 2026-05-07 20:36 | 43.12360 | 39.82058 | 6996 ft | 255 kts | 231° |
| 2026-05-07 20:36 | 43.11004 | 39.80530 | 7004 ft | 254 kts | 205° |
| 2026-05-07 20:37 | 43.09351 | 39.79669 | 7007 ft | 255 kts | 197° |
| 2026-05-07 20:37 | 43.07646 | 39.78948 | 6998 ft | 257 kts | 196° |
| 2026-05-07 20:37 | 43.05934 | 39.78224 | 6996 ft | 258 kts | 197° |
| 2026-05-07 20:37 | 43.04216 | 39.77483 | 6994 ft | 259 kts | 197° |
| 2026-05-07 20:38 | 43.02452 | 39.77105 | 6979 ft | 257 kts | 172° |
| 2026-05-07 20:38 | 43.00818 | 39.77968 | 6998 ft | 253 kts | 141° |
| 2026-05-07 20:38 | 42.99714 | 39.79801 | 6997 ft | 251 kts | 113° |
| 2026-05-07 20:38 | 42.99388 | 39.82114 | 7001 ft | 250 kts | 85° |
| 2026-05-07 20:39 | 42.99906 | 39.84355 | 6994 ft | 250 kts | 57° |
| 2026-05-07 20:39 | 43.01142 | 39.86000 | 7004 ft | 250 kts | 30° |
| 2026-05-07 20:39 | 43.02748 | 39.86928 | 7007 ft | 252 kts | 19° |
| 2026-05-07 20:39 | 43.04426 | 39.87652 | 6998 ft | 253 kts | 18° |
| 2026-05-07 20:40 | 43.06111 | 39.88367 | 6998 ft | 254 kts | 18° |
| 2026-05-07 20:40 | 43.07800 | 39.89099 | 6999 ft | 255 kts | 18° |
| 2026-05-07 20:40 | 43.09518 | 39.89671 | 6985 ft | 256 kts | 1° |
| 2026-05-07 20:40 | 43.11222 | 39.89093 | 7013 ft | 255 kts | 329° |
| 2026-05-07 20:41 | 43.12493 | 39.87434 | 6995 ft | 256 kts | 300° |
| 2026-05-07 20:41 | 43.13026 | 39.85142 | 6999 ft | 255 kts | 271° |
| 2026-05-07 20:41 | 43.12681 | 39.82782 | 6999 ft | 255 kts | 242° |
| 2026-05-07 20:41 | 43.11538 | 39.80970 | 6999 ft | 254 kts | 213° |
| 2026-05-07 20:42 | 43.09945 | 39.79938 | 7013 ft | 255 kts | 198° |
| 2026-05-07 20:42 | 43.08343 | 39.79240 | 6999 ft | 256 kts | 196° |
| 2026-05-07 20:42 | 43.06616 | 39.78514 | 7008 ft | 262 kts | 197° |
| 2026-05-07 20:42 | 43.04906 | 39.77782 | 6991 ft | 259 kts | 197° |
| 2026-05-07 20:43 | 43.03137 | 39.77107 | 6789 ft | 262 kts | 185° |
| 2026-05-07 20:43 | 43.01402 | 39.77468 | 6572 ft | 256 kts | 153° |
| 2026-05-07 20:43 | 43.00053 | 39.78965 | 6384 ft | 249 kts | 129° |
| 2026-05-07 20:43 | 42.98751 | 39.80500 | 6164 ft | 249 kts | 155° |
| 2026-05-07 20:44 | 42.97075 | 39.80935 | 6017 ft | 247 kts | 186° |
| 2026-05-07 20:44 | 42.95484 | 39.80148 | 5892 ft | 246 kts | 217° |
| 2026-05-07 20:44 | 42.94406 | 39.78356 | 5766 ft | 248 kts | 247° |
| 2026-05-07 20:44 | 42.94141 | 39.76050 | 5650 ft | 250 kts | 277° |
| 2026-05-07 20:45 | 42.94529 | 39.73726 | 5560 ft | 253 kts | 286° |
| 2026-05-07 20:45 | 42.95026 | 39.71411 | 5435 ft | 255 kts | 287° |
| 2026-05-07 20:45 | 42.95537 | 39.69087 | 5311 ft | 256 kts | 287° |
| 2026-05-07 20:45 | 42.96292 | 39.66924 | 5151 ft | 252 kts | 311° |
| 2026-05-07 20:46 | 42.97683 | 39.65569 | 5038 ft | 247 kts | 342° |
| 2026-05-07 20:46 | 42.99379 | 39.65384 | 5008 ft | 247 kts | 13° |
| 2026-05-07 20:46 | 43.00980 | 39.66200 | 5011 ft | 246 kts | 25° |
| 2026-05-07 20:46 | 43.02522 | 39.67220 | 4988 ft | 247 kts | 27° |
| 2026-05-07 20:47 | 43.04084 | 39.68282 | 5010 ft | 254 kts | 27° |
| 2026-05-07 20:47 | 43.05661 | 39.69345 | 4993 ft | 251 kts | 25° |
| 2026-05-07 20:47 | 43.07254 | 39.70279 | 4988 ft | 246 kts | 23° |
| 2026-05-07 20:47 | 43.08825 | 39.71173 | 4981 ft | 243 kts | 23° |
| 2026-05-07 20:48 | 43.10372 | 39.72067 | 4990 ft | 241 kts | 24° |
| 2026-05-07 20:48 | 43.11913 | 39.72973 | 5000 ft | 242 kts | 24° |
| 2026-05-07 20:48 | 43.13471 | 39.73901 | 5011 ft | 247 kts | 24° |
| 2026-05-07 20:48 | 43.15045 | 39.74848 | 5000 ft | 247 kts | 24° |
| 2026-05-07 20:49 | 43.16610 | 39.75796 | 4990 ft | 245 kts | 24° |
| 2026-05-07 20:49 | 43.18168 | 39.76743 | 4992 ft | 244 kts | 24° |
| 2026-05-07 20:49 | 43.19744 | 39.77705 | 4602 ft | 254 kts | 25° |
| 2026-05-07 20:49 | 43.21338 | 39.78679 | 4297 ft | 249 kts | 25° |
| 2026-05-07 20:50 | 43.22904 | 39.79638 | 3996 ft | 243 kts | 25° |
| 2026-05-07 20:50 | 43.24427 | 39.80571 | 3717 ft | 237 kts | 25° |
| 2026-05-07 20:50 | 43.25894 | 39.81471 | 3455 ft | 231 kts | 25° |
| 2026-05-07 20:50 | 43.27367 | 39.82394 | 3203 ft | 228 kts | 27° |
| 2026-05-07 20:51 | 43.28736 | 39.83387 | 2985 ft | 222 kts | 30° |
| 2026-05-07 20:51 | 43.30074 | 39.84405 | 2736 ft | 216 kts | 30° |
| 2026-05-07 20:51 | 43.31368 | 39.85383 | 2500 ft | 209 kts | 30° |
| 2026-05-07 20:51 | 43.32618 | 39.86323 | 2239 ft | 200 kts | 30° |
| 2026-05-07 20:52 | 43.33795 | 39.87208 | 2059 ft | 187 kts | 30° |
| 2026-05-07 20:52 | 43.34899 | 39.88039 | 1868 ft | 174 kts | 29° |
| 2026-05-07 20:52 | 43.35912 | 39.88801 | 1665 ft | 159 kts | 30° |
| 2026-05-07 20:52 | 43.36872 | 39.89524 | 1477 ft | 156 kts | 29° |
| 2026-05-07 20:53 | 43.37820 | 39.90238 | 1281 ft | 155 kts | 29° |
| 2026-05-07 20:53 | 43.38744 | 39.90933 | 1093 ft | 153 kts | 29° |
| 2026-05-07 20:53 | 43.39674 | 39.91633 | 901 ft | 152 kts | 28° |
| 2026-05-07 20:53 | 43.40592 | 39.92336 | 735 ft | 151 kts | 29° |
| 2026-05-07 20:54 | 43.41518 | 39.93033 | 538 ft | 151 kts | 27° |
| 2026-05-07 20:54 | 43.42439 | 39.93711 | 334 ft | 150 kts | 29° |
| 2026-05-07 20:54 | 43.43352 | 39.94400 | 118 ft | 150 kts | 29° |
| 2026-05-07 20:54 | 43.44222 | 39.95053 | 71 ft | 130 kts | 27° |
| 2026-05-07 20:55 | 43.44815 | 39.95496 | 91 ft | 57 kts | 28° |
| 2026-05-07 20:55 | 43.44963 | 39.95576 | 88 ft | 10 kts | 339° |
| 2026-05-07 20:55 | 43.45024 | 39.95534 | 90 ft | 7 kts | 335° |
| 2026-05-07 20:55 | 43.45059 | 39.95491 | 93 ft | 7 kts | 280° |
| 2026-05-07 20:56 | 43.45043 | 39.95422 | 90 ft | 8 kts | 248° |
| 2026-05-07 20:56 | 43.45017 | 39.95344 | 89 ft | 10 kts | 244° |
| 2026-05-07 20:56 | 43.44986 | 39.95254 | 87 ft | 11 kts | 245° |
| 2026-05-07 20:56 | 43.44950 | 39.95148 | 82 ft | 13 kts | 244° |
| 2026-05-07 20:57 | 43.44908 | 39.95034 | 80 ft | 14 kts | 245° |
| 2026-05-07 20:57 | 43.44864 | 39.94905 | 70 ft | 16 kts | 245° |
| 2026-05-07 20:57 | 43.44817 | 39.94769 | 67 ft | 15 kts | 245° |
| 2026-05-07 20:57 | 43.44776 | 39.94648 | 70 ft | 13 kts | 245° |
| 2026-05-07 20:58 | 43.44738 | 39.94537 | 71 ft | 13 kts | 245° |
| 2026-05-07 20:58 | 43.44702 | 39.94432 | 64 ft | 12 kts | 245° |
| 2026-05-07 20:58 | 43.44666 | 39.94327 | 69 ft | 12 kts | 245° |
| 2026-05-07 20:58 | 43.44648 | 39.94257 | 66 ft | 6 kts | 277° |
| 2026-05-07 20:59 | 43.44679 | 39.94227 | 70 ft | 6 kts | 339° |
| 2026-05-07 20:59 | 43.44714 | 39.94205 | 74 ft | 6 kts | 335° |
| 2026-05-07 20:59 | 43.44735 | 39.94192 | 69 ft | 4 kts | 335° |
| 2026-05-07 20:59 | 43.44746 | 39.94185 | 74 ft | 0 kts | 335° |